sensor_id;sensor_type;location;lat;lon;timestamp;P1;durP1;ratioP1;P2;durP2;ratioP2
79790;SDS011;69278;52.220;5.172;2023-04-24T00:02:15;2.25;;;1.48;;
79790;SDS011;69278;52.220;5.172;2023-04-24T00:04:41;1.40;;;1.00;;
79790;SDS011;69278;52.220;5.172;2023-04-24T00:07:11;2.03;;;0.90;;
79790;SDS011;69278;52.220;5.172;2023-04-24T00:09:38;1.95;;;0.82;;
79790;SDS011;69278;52.220;5.172;2023-04-24T00:12:06;1.55;;;0.73;;
79790;SDS011;69278;52.220;5.172;2023-04-24T00:14:32;2.53;;;1.20;;
79790;SDS011;69278;52.220;5.172;2023-04-24T00:16:59;2.50;;;1.40;;
79790;SDS011;69278;52.220;5.172;2023-04-24T00:19:25;3.00;;;1.70;;
79790;SDS011;69278;52.220;5.172;2023-04-24T00:21:52;4.22;;;1.60;;
79790;SDS011;69278;52.220;5.172;2023-04-24T00:24:18;2.05;;;1.40;;
79790;SDS011;69278;52.220;5.172;2023-04-24T00:26:44;2.08;;;0.90;;
79790;SDS011;69278;52.220;5.172;2023-04-24T00:29:11;2.23;;;0.90;;
79790;SDS011;69278;52.220;5.172;2023-04-24T00:31:37;1.52;;;0.95;;
79790;SDS011;69278;52.220;5.172;2023-04-24T00:34:04;1.50;;;1.00;;
79790;SDS011;69278;52.220;5.172;2023-04-24T00:36:30;1.92;;;1.00;;
79790;SDS011;69278;52.220;5.172;2023-04-24T00:38:58;3.92;;;1.20;;
79790;SDS011;69278;52.220;5.172;2023-04-24T00:41:24;2.40;;;1.60;;
79790;SDS011;69278;52.220;5.172;2023-04-24T00:43:51;3.03;;;1.65;;
79790;SDS011;69278;52.220;5.172;2023-04-24T00:46:18;3.38;;;2.00;;
79790;SDS011;69278;52.220;5.172;2023-04-24T00:48:45;3.50;;;2.20;;
79790;SDS011;69278;52.220;5.172;2023-04-24T00:51:12;4.53;;;2.30;;
79790;SDS011;69278;52.220;5.172;2023-04-24T00:53:39;4.23;;;1.90;;
79790;SDS011;69278;52.220;5.172;2023-04-24T00:56:05;3.33;;;1.83;;
79790;SDS011;69278;52.220;5.172;2023-04-24T00:58:32;2.50;;;1.70;;
79790;SDS011;69278;52.220;5.172;2023-04-24T01:00:59;4.53;;;1.70;;
79790;SDS011;69278;52.220;5.172;2023-04-24T01:03:29;2.95;;;1.80;;
79790;SDS011;69278;52.220;5.172;2023-04-24T01:05:58;2.33;;;1.10;;
79790;SDS011;69278;52.220;5.172;2023-04-24T01:08:25;3.53;;;1.70;;
79790;SDS011;69278;52.220;5.172;2023-04-24T01:10:53;2.08;;;1.23;;
79790;SDS011;69278;52.220;5.172;2023-04-24T01:13:21;2.38;;;1.25;;
79790;SDS011;69278;52.220;5.172;2023-04-24T01:15:47;3.67;;;1.20;;
79790;SDS011;69278;52.220;5.172;2023-04-24T01:18:14;1.87;;;1.10;;
79790;SDS011;69278;52.220;5.172;2023-04-24T01:20:41;3.15;;;1.00;;
79790;SDS011;69278;52.220;5.172;2023-04-24T01:23:10;3.15;;;1.10;;
79790;SDS011;69278;52.220;5.172;2023-04-24T01:25:37;2.08;;;0.75;;
79790;SDS011;69278;52.220;5.172;2023-04-24T01:28:03;2.15;;;1.00;;
79790;SDS011;69278;52.220;5.172;2023-04-24T01:30:31;3.57;;;1.17;;
79790;SDS011;69278;52.220;5.172;2023-04-24T01:32:58;3.13;;;1.10;;
79790;SDS011;69278;52.220;5.172;2023-04-24T01:35:25;1.95;;;1.23;;
79790;SDS011;69278;52.220;5.172;2023-04-24T01:37:52;3.42;;;1.60;;
79790;SDS011;69278;52.220;5.172;2023-04-24T01:40:18;2.53;;;1.50;;
79790;SDS011;69278;52.220;5.172;2023-04-24T01:42:45;3.90;;;1.60;;
79790;SDS011;69278;52.220;5.172;2023-04-24T01:45:12;3.40;;;1.70;;
79790;SDS011;69278;52.220;5.172;2023-04-24T01:47:41;2.55;;;1.60;;
79790;SDS011;69278;52.220;5.172;2023-04-24T01:50:08;3.38;;;1.77;;
79790;SDS011;69278;52.220;5.172;2023-04-24T01:52:35;3.60;;;1.90;;
79790;SDS011;69278;52.220;5.172;2023-04-24T01:55:02;3.47;;;1.70;;
79790;SDS011;69278;52.220;5.172;2023-04-24T01:57:30;2.50;;;1.70;;
79790;SDS011;69278;52.220;5.172;2023-04-24T01:59:57;3.42;;;1.50;;
79790;SDS011;69278;52.220;5.172;2023-04-24T02:02:24;3.08;;;1.42;;
79790;SDS011;69278;52.220;5.172;2023-04-24T02:04:54;2.30;;;1.45;;
79790;SDS011;69278;52.220;5.172;2023-04-24T02:07:20;2.47;;;1.30;;
79790;SDS011;69278;52.220;5.172;2023-04-24T02:09:47;2.83;;;1.40;;
79790;SDS011;69278;52.220;5.172;2023-04-24T02:12:14;2.78;;;1.40;;
79790;SDS011;69278;52.220;5.172;2023-04-24T02:14:41;2.65;;;1.33;;
79790;SDS011;69278;52.220;5.172;2023-04-24T02:17:08;3.53;;;1.35;;
79790;SDS011;69278;52.220;5.172;2023-04-24T02:19:35;2.20;;;1.20;;
79790;SDS011;69278;52.220;5.172;2023-04-24T02:22:02;2.85;;;1.20;;
79790;SDS011;69278;52.220;5.172;2023-04-24T02:24:28;2.55;;;1.20;;
79790;SDS011;69278;52.220;5.172;2023-04-24T02:26:54;3.42;;;1.33;;
79790;SDS011;69278;52.220;5.172;2023-04-24T02:29:21;2.20;;;1.20;;
79790;SDS011;69278;52.220;5.172;2023-04-24T02:31:48;2.23;;;1.00;;
79790;SDS011;69278;52.220;5.172;2023-04-24T02:34:15;2.03;;;1.05;;
79790;SDS011;69278;52.220;5.172;2023-04-24T02:36:42;2.58;;;1.00;;
79790;SDS011;69278;52.220;5.172;2023-04-24T02:39:08;2.88;;;1.10;;
79790;SDS011;69278;52.220;5.172;2023-04-24T02:41:35;3.25;;;1.20;;
79790;SDS011;69278;52.220;5.172;2023-04-24T02:44:02;2.03;;;1.10;;
79790;SDS011;69278;52.220;5.172;2023-04-24T02:46:28;2.83;;;1.35;;
79790;SDS011;69278;52.220;5.172;2023-04-24T02:48:55;2.85;;;1.40;;
79790;SDS011;69278;52.220;5.172;2023-04-24T02:51:21;3.58;;;1.33;;
79790;SDS011;69278;52.220;5.172;2023-04-24T02:53:48;2.60;;;1.35;;
79790;SDS011;69278;52.220;5.172;2023-04-24T02:56:14;2.80;;;1.50;;
79790;SDS011;69278;52.220;5.172;2023-04-24T02:58:40;2.88;;;1.40;;
79790;SDS011;69278;52.220;5.172;2023-04-24T03:01:08;3.97;;;1.73;;
79790;SDS011;69278;52.220;5.172;2023-04-24T03:03:36;2.65;;;1.60;;
79790;SDS011;69278;52.220;5.172;2023-04-24T03:06:04;4.60;;;1.60;;
79790;SDS011;69278;52.220;5.172;2023-04-24T03:08:32;3.63;;;1.63;;
79790;SDS011;69278;52.220;5.172;2023-04-24T03:10:58;3.83;;;1.98;;
79790;SDS011;69278;52.220;5.172;2023-04-24T03:13:25;3.45;;;1.80;;
79790;SDS011;69278;52.220;5.172;2023-04-24T03:15:52;2.60;;;1.73;;
79790;SDS011;69278;52.220;5.172;2023-04-24T03:18:20;3.15;;;1.58;;
79790;SDS011;69278;52.220;5.172;2023-04-24T03:20:46;2.80;;;1.70;;
79790;SDS011;69278;52.220;5.172;2023-04-24T03:23:13;3.40;;;1.80;;
79790;SDS011;69278;52.220;5.172;2023-04-24T03:25:40;2.90;;;1.67;;
79790;SDS011;69278;52.220;5.172;2023-04-24T03:28:08;4.18;;;1.80;;
79790;SDS011;69278;52.220;5.172;2023-04-24T03:30:35;4.75;;;2.10;;
79790;SDS011;69278;52.220;5.172;2023-04-24T03:33:01;4.17;;;1.93;;
79790;SDS011;69278;52.220;5.172;2023-04-24T03:35:28;3.30;;;1.98;;
79790;SDS011;69278;52.220;5.172;2023-04-24T03:37:54;4.43;;;2.17;;
79790;SDS011;69278;52.220;5.172;2023-04-24T03:40:21;4.13;;;1.92;;
79790;SDS011;69278;52.220;5.172;2023-04-24T03:42:47;3.85;;;2.15;;
79790;SDS011;69278;52.220;5.172;2023-04-24T03:45:14;4.10;;;1.87;;
79790;SDS011;69278;52.220;5.172;2023-04-24T03:47:40;3.05;;;1.85;;
79790;SDS011;69278;52.220;5.172;2023-04-24T03:50:07;2.80;;;1.90;;
79790;SDS011;69278;52.220;5.172;2023-04-24T03:52:35;4.53;;;1.88;;
79790;SDS011;69278;52.220;5.172;2023-04-24T03:55:01;2.30;;;1.50;;
79790;SDS011;69278;52.220;5.172;2023-04-24T03:57:28;2.50;;;1.30;;
79790;SDS011;69278;52.220;5.172;2023-04-24T03:59:54;2.45;;;1.50;;
79790;SDS011;69278;52.220;5.172;2023-04-24T04:02:21;3.63;;;1.70;;
79790;SDS011;69278;52.220;5.172;2023-04-24T04:04:47;2.55;;;1.65;;
79790;SDS011;69278;52.220;5.172;2023-04-24T04:07:14;3.17;;;1.90;;
79790;SDS011;69278;52.220;5.172;2023-04-24T04:09:41;2.90;;;1.90;;
79790;SDS011;69278;52.220;5.172;2023-04-24T04:12:07;2.78;;;1.70;;
79790;SDS011;69278;52.220;5.172;2023-04-24T04:14:34;4.50;;;1.90;;
79790;SDS011;69278;52.220;5.172;2023-04-24T04:17:00;2.97;;;1.90;;
79790;SDS011;69278;52.220;5.172;2023-04-24T04:19:27;2.95;;;1.60;;
79790;SDS011;69278;52.220;5.172;2023-04-24T04:21:53;3.10;;;1.87;;
79790;SDS011;69278;52.220;5.172;2023-04-24T04:24:22;2.97;;;1.90;;
79790;SDS011;69278;52.220;5.172;2023-04-24T04:26:50;3.28;;;1.90;;
79790;SDS011;69278;52.220;5.172;2023-04-24T04:29:17;3.40;;;1.98;;
79790;SDS011;69278;52.220;5.172;2023-04-24T04:31:48;4.05;;;2.10;;
79790;SDS011;69278;52.220;5.172;2023-04-24T04:34:15;4.60;;;2.07;;
79790;SDS011;69278;52.220;5.172;2023-04-24T04:36:41;3.72;;;2.00;;
79790;SDS011;69278;52.220;5.172;2023-04-24T04:39:09;3.45;;;1.95;;
79790;SDS011;69278;52.220;5.172;2023-04-24T04:41:36;4.03;;;2.08;;
79790;SDS011;69278;52.220;5.172;2023-04-24T04:44:03;5.43;;;2.00;;
79790;SDS011;69278;52.220;5.172;2023-04-24T04:46:31;3.77;;;1.77;;
79790;SDS011;69278;52.220;5.172;2023-04-24T04:48:59;3.22;;;1.60;;
79790;SDS011;69278;52.220;5.172;2023-04-24T04:51:27;4.55;;;2.10;;
79790;SDS011;69278;52.220;5.172;2023-04-24T04:53:53;3.72;;;1.90;;
79790;SDS011;69278;52.220;5.172;2023-04-24T04:56:20;3.47;;;1.88;;
79790;SDS011;69278;52.220;5.172;2023-04-24T04:58:46;3.27;;;2.10;;
79790;SDS011;69278;52.220;5.172;2023-04-24T05:01:13;5.13;;;2.05;;
79790;SDS011;69278;52.220;5.172;2023-04-24T05:03:40;4.18;;;2.05;;
79790;SDS011;69278;52.220;5.172;2023-04-24T05:06:07;3.42;;;1.60;;
79790;SDS011;69278;52.220;5.172;2023-04-24T05:08:33;3.90;;;1.90;;
79790;SDS011;69278;52.220;5.172;2023-04-24T05:10:59;4.77;;;1.80;;
79790;SDS011;69278;52.220;5.172;2023-04-24T05:13:26;3.00;;;1.65;;
79790;SDS011;69278;52.220;5.172;2023-04-24T05:16:05;5.10;;;1.77;;
79790;SDS011;69278;52.220;5.172;2023-04-24T05:18:31;3.15;;;1.50;;
79790;SDS011;69278;52.220;5.172;2023-04-24T05:20:58;3.45;;;1.45;;
79790;SDS011;69278;52.220;5.172;2023-04-24T05:23:24;2.67;;;1.30;;
79790;SDS011;69278;52.220;5.172;2023-04-24T05:25:51;3.50;;;1.23;;
79790;SDS011;69278;52.220;5.172;2023-04-24T05:28:17;2.08;;;1.00;;
79790;SDS011;69278;52.220;5.172;2023-04-24T05:30:44;1.63;;;0.82;;
79790;SDS011;69278;52.220;5.172;2023-04-24T05:33:10;2.83;;;1.05;;
79790;SDS011;69278;52.220;5.172;2023-04-24T05:35:37;2.30;;;1.00;;
79790;SDS011;69278;52.220;5.172;2023-04-24T05:38:03;2.47;;;1.00;;
79790;SDS011;69278;52.220;5.172;2023-04-24T05:40:30;2.25;;;0.90;;
79790;SDS011;69278;52.220;5.172;2023-04-24T05:42:56;1.65;;;0.95;;
79790;SDS011;69278;52.220;5.172;2023-04-24T05:45:23;3.35;;;0.90;;
79790;SDS011;69278;52.220;5.172;2023-04-24T05:47:49;1.93;;;1.00;;
79790;SDS011;69278;52.220;5.172;2023-04-24T05:50:18;1.13;;;0.80;;
79790;SDS011;69278;52.220;5.172;2023-04-24T05:52:45;1.88;;;0.80;;
79790;SDS011;69278;52.220;5.172;2023-04-24T05:55:11;1.48;;;0.88;;
79790;SDS011;69278;52.220;5.172;2023-04-24T05:57:38;3.45;;;0.90;;
79790;SDS011;69278;52.220;5.172;2023-04-24T06:00:04;3.33;;;0.90;;
79790;SDS011;69278;52.220;5.172;2023-04-24T06:02:32;1.30;;;0.80;;
79790;SDS011;69278;52.220;5.172;2023-04-24T06:04:59;2.90;;;1.05;;
79790;SDS011;69278;52.220;5.172;2023-04-24T06:07:26;1.88;;;1.33;;
79790;SDS011;69278;52.220;5.172;2023-04-24T06:09:52;4.63;;;2.30;;
79790;SDS011;69278;52.220;5.172;2023-04-24T06:12:19;6.87;;;3.50;;
79790;SDS011;69278;52.220;5.172;2023-04-24T06:14:45;10.30;;;5.63;;
79790;SDS011;69278;52.220;5.172;2023-04-24T06:17:12;14.35;;;6.35;;
79790;SDS011;69278;52.220;5.172;2023-04-24T06:19:38;15.45;;;7.40;;
79790;SDS011;69278;52.220;5.172;2023-04-24T06:22:05;20.08;;;8.65;;
79790;SDS011;69278;52.220;5.172;2023-04-24T06:24:31;19.00;;;9.17;;
79790;SDS011;69278;52.220;5.172;2023-04-24T06:27:00;20.40;;;9.10;;
79790;SDS011;69278;52.220;5.172;2023-04-24T06:29:27;16.85;;;8.45;;
79790;SDS011;69278;52.220;5.172;2023-04-24T06:31:53;14.27;;;7.25;;
79790;SDS011;69278;52.220;5.172;2023-04-24T06:34:20;18.40;;;7.82;;
79790;SDS011;69278;52.220;5.172;2023-04-24T06:36:46;18.93;;;8.30;;
79790;SDS011;69278;52.220;5.172;2023-04-24T06:39:13;16.40;;;7.85;;
79790;SDS011;69278;52.220;5.172;2023-04-24T06:41:40;18.55;;;8.35;;
79790;SDS011;69278;52.220;5.172;2023-04-24T06:44:07;17.75;;;8.90;;
79790;SDS011;69278;52.220;5.172;2023-04-24T06:46:33;14.15;;;7.15;;
79790;SDS011;69278;52.220;5.172;2023-04-24T06:49:00;17.27;;;8.40;;
79790;SDS011;69278;52.220;5.172;2023-04-24T06:51:26;13.63;;;7.22;;
79790;SDS011;69278;52.220;5.172;2023-04-24T06:53:53;16.23;;;7.63;;
79790;SDS011;69278;52.220;5.172;2023-04-24T06:56:22;18.35;;;7.80;;
79790;SDS011;69278;52.220;5.172;2023-04-24T06:58:48;15.13;;;7.20;;
79790;SDS011;69278;52.220;5.172;2023-04-24T07:01:15;16.13;;;6.23;;
79790;SDS011;69278;52.220;5.172;2023-04-24T07:03:41;16.55;;;6.47;;
79790;SDS011;69278;52.220;5.172;2023-04-24T07:06:08;17.42;;;7.63;;
79790;SDS011;69278;52.220;5.172;2023-04-24T07:08:37;15.73;;;7.30;;
79790;SDS011;69278;52.220;5.172;2023-04-24T07:11:04;13.85;;;5.57;;
79790;SDS011;69278;52.220;5.172;2023-04-24T07:13:30;20.47;;;7.87;;
79790;SDS011;69278;52.220;5.172;2023-04-24T07:15:57;15.13;;;7.57;;
79790;SDS011;69278;52.220;5.172;2023-04-24T07:18:23;16.52;;;7.30;;
79790;SDS011;69278;52.220;5.172;2023-04-24T07:20:50;14.75;;;6.95;;
79790;SDS011;69278;52.220;5.172;2023-04-24T07:23:17;13.50;;;6.40;;
79790;SDS011;69278;52.220;5.172;2023-04-24T07:25:44;15.67;;;6.27;;
79790;SDS011;69278;52.220;5.172;2023-04-24T07:28:10;15.55;;;7.00;;
79790;SDS011;69278;52.220;5.172;2023-04-24T07:30:36;16.75;;;6.72;;
79790;SDS011;69278;52.220;5.172;2023-04-24T07:33:03;16.83;;;7.05;;
79790;SDS011;69278;52.220;5.172;2023-04-24T07:35:29;17.35;;;7.00;;
79790;SDS011;69278;52.220;5.172;2023-04-24T07:37:56;15.67;;;6.60;;
79790;SDS011;69278;52.220;5.172;2023-04-24T07:40:22;18.80;;;6.53;;
79790;SDS011;69278;52.220;5.172;2023-04-24T07:42:49;13.48;;;5.97;;
79790;SDS011;69278;52.220;5.172;2023-04-24T07:45:16;17.50;;;6.60;;
79790;SDS011;69278;52.220;5.172;2023-04-24T07:47:43;13.60;;;6.13;;
79790;SDS011;69278;52.220;5.172;2023-04-24T07:50:11;15.20;;;6.33;;
79790;SDS011;69278;52.220;5.172;2023-04-24T07:52:39;14.15;;;5.97;;
79790;SDS011;69278;52.220;5.172;2023-04-24T07:55:05;9.35;;;4.45;;
79790;SDS011;69278;52.220;5.172;2023-04-24T07:57:33;13.80;;;4.80;;
79790;SDS011;69278;52.220;5.172;2023-04-24T07:59:59;16.88;;;5.15;;
79790;SDS011;69278;52.220;5.172;2023-04-24T08:02:26;10.93;;;4.23;;
79790;SDS011;69278;52.220;5.172;2023-04-24T08:04:53;12.38;;;4.32;;
79790;SDS011;69278;52.220;5.172;2023-04-24T08:07:20;8.15;;;3.17;;
79790;SDS011;69278;52.220;5.172;2023-04-24T08:09:47;10.00;;;3.63;;
79790;SDS011;69278;52.220;5.172;2023-04-24T08:12:14;12.73;;;3.40;;
79790;SDS011;69278;52.220;5.172;2023-04-24T08:14:40;14.90;;;3.53;;
79790;SDS011;69278;52.220;5.172;2023-04-24T08:17:07;12.52;;;3.58;;
79790;SDS011;69278;52.220;5.172;2023-04-24T08:19:34;12.10;;;3.83;;
79790;SDS011;69278;52.220;5.172;2023-04-24T08:22:00;13.25;;;3.72;;
79790;SDS011;69278;52.220;5.172;2023-04-24T08:24:27;16.17;;;3.65;;
79790;SDS011;69278;52.220;5.172;2023-04-24T08:26:53;11.47;;;3.07;;
79790;SDS011;69278;52.220;5.172;2023-04-24T08:29:22;10.68;;;2.80;;
79790;SDS011;69278;52.220;5.172;2023-04-24T08:31:49;11.27;;;2.85;;
79790;SDS011;69278;52.220;5.172;2023-04-24T08:34:15;10.32;;;2.40;;
79790;SDS011;69278;52.220;5.172;2023-04-24T08:36:42;12.07;;;2.40;;
79790;SDS011;69278;52.220;5.172;2023-04-24T08:39:13;11.47;;;2.77;;
79790;SDS011;69278;52.220;5.172;2023-04-24T08:41:40;10.35;;;2.80;;
79790;SDS011;69278;52.220;5.172;2023-04-24T08:44:09;7.95;;;2.30;;
79790;SDS011;69278;52.220;5.172;2023-04-24T08:46:36;10.35;;;2.22;;
79790;SDS011;69278;52.220;5.172;2023-04-24T08:49:03;7.35;;;2.28;;
79790;SDS011;69278;52.220;5.172;2023-04-24T08:51:29;8.57;;;1.83;;
79790;SDS011;69278;52.220;5.172;2023-04-24T08:53:57;7.93;;;2.45;;
79790;SDS011;69278;52.220;5.172;2023-04-24T08:56:24;8.90;;;2.55;;
79790;SDS011;69278;52.220;5.172;2023-04-24T08:58:51;11.02;;;2.42;;
79790;SDS011;69278;52.220;5.172;2023-04-24T09:01:21;9.40;;;2.05;;
79790;SDS011;69278;52.220;5.172;2023-04-24T09:03:51;11.43;;;2.43;;
79790;SDS011;69278;52.220;5.172;2023-04-24T09:06:19;13.07;;;2.42;;
79790;SDS011;69278;52.220;5.172;2023-04-24T09:08:48;8.82;;;2.33;;
79790;SDS011;69278;52.220;5.172;2023-04-24T09:11:18;7.10;;;2.20;;
79790;SDS011;69278;52.220;5.172;2023-04-24T09:13:45;6.35;;;1.90;;
79790;SDS011;69278;52.220;5.172;2023-04-24T09:16:12;9.33;;;2.77;;
79790;SDS011;69278;52.220;5.172;2023-04-24T09:18:40;10.02;;;2.45;;
79790;SDS011;69278;52.220;5.172;2023-04-24T09:21:07;7.95;;;2.30;;
79790;SDS011;69278;52.220;5.172;2023-04-24T09:23:34;9.30;;;2.58;;
79790;SDS011;69278;52.220;5.172;2023-04-24T09:26:02;7.50;;;2.53;;
79790;SDS011;69278;52.220;5.172;2023-04-24T09:28:32;8.23;;;2.17;;
79790;SDS011;69278;52.220;5.172;2023-04-24T09:31:02;7.47;;;2.20;;
79790;SDS011;69278;52.220;5.172;2023-04-24T09:33:35;6.47;;;2.20;;
79790;SDS011;69278;52.220;5.172;2023-04-24T09:36:02;6.95;;;2.40;;
79790;SDS011;69278;52.220;5.172;2023-04-24T09:38:33;8.93;;;2.40;;
79790;SDS011;69278;52.220;5.172;2023-04-24T09:41:07;8.90;;;2.03;;
79790;SDS011;69278;52.220;5.172;2023-04-24T09:43:34;8.98;;;2.20;;
79790;SDS011;69278;52.220;5.172;2023-04-24T09:46:06;8.73;;;2.20;;
79790;SDS011;69278;52.220;5.172;2023-04-24T09:48:34;5.05;;;2.00;;
79790;SDS011;69278;52.220;5.172;2023-04-24T09:51:02;6.75;;;1.90;;
79790;SDS011;69278;52.220;5.172;2023-04-24T09:53:33;5.03;;;1.50;;
79790;SDS011;69278;52.220;5.172;2023-04-24T09:56:03;9.82;;;2.42;;
79790;SDS011;69278;52.220;5.172;2023-04-24T09:58:35;8.85;;;2.10;;
79790;SDS011;69278;52.220;5.172;2023-04-24T10:01:02;8.00;;;1.90;;
79790;SDS011;69278;52.220;5.172;2023-04-24T10:03:29;5.60;;;1.50;;
79790;SDS011;69278;52.220;5.172;2023-04-24T10:06:00;4.05;;;1.10;;
79790;SDS011;69278;52.220;5.172;2023-04-24T10:08:34;5.68;;;1.60;;
79790;SDS011;69278;52.220;5.172;2023-04-24T10:11:01;7.60;;;1.50;;
79790;SDS011;69278;52.220;5.172;2023-04-24T10:13:28;6.57;;;1.50;;
79790;SDS011;69278;52.220;5.172;2023-04-24T10:15:56;7.57;;;1.52;;
79790;SDS011;69278;52.220;5.172;2023-04-24T10:18:26;2.92;;;1.30;;
79790;SDS011;69278;52.220;5.172;2023-04-24T10:20:53;5.35;;;1.40;;
79790;SDS011;69278;52.220;5.172;2023-04-24T10:23:21;5.13;;;1.50;;
79790;SDS011;69278;52.220;5.172;2023-04-24T10:25:48;3.95;;;1.50;;
79790;SDS011;69278;52.220;5.172;2023-04-24T10:28:16;4.22;;;1.38;;
79790;SDS011;69278;52.220;5.172;2023-04-24T10:30:44;3.03;;;1.25;;
79790;SDS011;69278;52.220;5.172;2023-04-24T10:33:11;6.15;;;1.52;;
79790;SDS011;69278;52.220;5.172;2023-04-24T10:35:41;3.90;;;1.20;;
79790;SDS011;69278;52.220;5.172;2023-04-24T10:38:11;4.35;;;1.30;;
79790;SDS011;69278;52.220;5.172;2023-04-24T10:40:39;4.90;;;1.30;;
79790;SDS011;69278;52.220;5.172;2023-04-24T10:43:06;5.45;;;1.30;;
79790;SDS011;69278;52.220;5.172;2023-04-24T10:45:37;4.13;;;1.10;;
79790;SDS011;69278;52.220;5.172;2023-04-24T10:48:05;5.43;;;1.40;;
79790;SDS011;69278;52.220;5.172;2023-04-24T10:50:44;5.70;;;1.42;;
79790;SDS011;69278;52.220;5.172;2023-04-24T10:53:17;3.97;;;1.27;;
79790;SDS011;69278;52.220;5.172;2023-04-24T10:55:50;5.47;;;1.20;;
79790;SDS011;69278;52.220;5.172;2023-04-24T10:58:24;5.80;;;1.50;;
79790;SDS011;69278;52.220;5.172;2023-04-24T11:01:01;5.90;;;1.50;;
79790;SDS011;69278;52.220;5.172;2023-04-24T11:03:29;6.70;;;1.35;;
79790;SDS011;69278;52.220;5.172;2023-04-24T11:08:31;2.97;;;1.23;;
79790;SDS011;69278;52.220;5.172;2023-04-24T11:11:09;5.97;;;1.45;;
79790;SDS011;69278;52.220;5.172;2023-04-24T11:14:23;3.73;;;1.10;;
79790;SDS011;69278;52.220;5.172;2023-04-24T11:19:33;2.40;;;0.90;;
79790;SDS011;69278;52.220;5.172;2023-04-24T11:22:00;2.60;;;0.90;;
79790;SDS011;69278;52.220;5.172;2023-04-24T11:24:48;1.63;;;0.80;;
79790;SDS011;69278;52.220;5.172;2023-04-24T11:27:18;1.73;;;0.70;;
79790;SDS011;69278;52.220;5.172;2023-04-24T11:29:47;3.65;;;0.80;;
79790;SDS011;69278;52.220;5.172;2023-04-24T11:32:19;1.85;;;0.80;;
79790;SDS011;69278;52.220;5.172;2023-04-24T11:37:35;2.58;;;0.90;;
79790;SDS011;69278;52.220;5.172;2023-04-24T11:40:03;3.53;;;0.90;;
79790;SDS011;69278;52.220;5.172;2023-04-24T11:42:38;4.05;;;1.10;;
79790;SDS011;69278;52.220;5.172;2023-04-24T11:45:12;5.25;;;1.00;;
79790;SDS011;69278;52.220;5.172;2023-04-24T11:47:48;3.00;;;0.90;;
79790;SDS011;69278;52.220;5.172;2023-04-24T11:50:15;3.13;;;1.10;;
79790;SDS011;69278;52.220;5.172;2023-04-24T11:52:44;5.17;;;1.00;;
79790;SDS011;69278;52.220;5.172;2023-04-24T11:57:48;4.32;;;1.38;;
79790;SDS011;69278;52.220;5.172;2023-04-24T12:00:17;4.05;;;1.15;;
79790;SDS011;69278;52.220;5.172;2023-04-24T12:02:48;2.42;;;0.82;;
79790;SDS011;69278;52.220;5.172;2023-04-24T12:05:20;3.40;;;1.03;;
79790;SDS011;69278;52.220;5.172;2023-04-24T12:07:48;4.60;;;1.00;;
79790;SDS011;69278;52.220;5.172;2023-04-24T12:10:19;2.50;;;1.10;;
79790;SDS011;69278;52.220;5.172;2023-04-24T12:12:46;4.35;;;0.90;;
79790;SDS011;69278;52.220;5.172;2023-04-24T12:15:13;5.05;;;1.38;;
79790;SDS011;69278;52.220;5.172;2023-04-24T12:17:42;7.80;;;1.50;;
79790;SDS011;69278;52.220;5.172;2023-04-24T12:20:09;4.25;;;1.10;;
79790;SDS011;69278;52.220;5.172;2023-04-24T12:22:52;8.82;;;1.35;;
79790;SDS011;69278;52.220;5.172;2023-04-24T12:25:25;4.57;;;1.10;;
79790;SDS011;69278;52.220;5.172;2023-04-24T12:27:53;5.88;;;1.40;;
79790;SDS011;69278;52.220;5.172;2023-04-24T12:30:25;5.30;;;1.20;;
79790;SDS011;69278;52.220;5.172;2023-04-24T12:32:54;6.43;;;1.10;;
79790;SDS011;69278;52.220;5.172;2023-04-24T12:35:25;6.82;;;1.60;;
79790;SDS011;69278;52.220;5.172;2023-04-24T12:37:53;2.55;;;0.95;;
79790;SDS011;69278;52.220;5.172;2023-04-24T12:40:21;9.10;;;1.73;;
79790;SDS011;69278;52.220;5.172;2023-04-24T12:42:51;7.97;;;1.80;;
79790;SDS011;69278;52.220;5.172;2023-04-24T12:45:18;10.70;;;2.13;;
79790;SDS011;69278;52.220;5.172;2023-04-24T12:47:45;9.27;;;2.15;;
79790;SDS011;69278;52.220;5.172;2023-04-24T12:50:13;9.32;;;2.28;;
79790;SDS011;69278;52.220;5.172;2023-04-24T12:52:41;13.57;;;2.20;;
79790;SDS011;69278;52.220;5.172;2023-04-24T12:55:08;8.17;;;2.17;;
79790;SDS011;69278;52.220;5.172;2023-04-24T12:57:36;10.43;;;1.98;;
79790;SDS011;69278;52.220;5.172;2023-04-24T13:00:04;8.48;;;2.03;;
79790;SDS011;69278;52.220;5.172;2023-04-24T13:02:32;9.25;;;1.90;;
79790;SDS011;69278;52.220;5.172;2023-04-24T13:05:00;11.23;;;1.90;;
79790;SDS011;69278;52.220;5.172;2023-04-24T13:07:27;6.00;;;1.40;;
79790;SDS011;69278;52.220;5.172;2023-04-24T13:09:54;10.52;;;2.20;;
79790;SDS011;69278;52.220;5.172;2023-04-24T13:12:23;9.50;;;2.08;;
79790;SDS011;69278;52.220;5.172;2023-04-24T13:14:53;8.20;;;1.80;;
79790;SDS011;69278;52.220;5.172;2023-04-24T13:17:20;8.35;;;2.00;;
79790;SDS011;69278;52.220;5.172;2023-04-24T13:19:49;8.80;;;1.70;;
79790;SDS011;69278;52.220;5.172;2023-04-24T13:22:17;4.80;;;1.70;;
79790;SDS011;69278;52.220;5.172;2023-04-24T13:24:47;8.52;;;2.05;;
79790;SDS011;69278;52.220;5.172;2023-04-24T13:27:15;8.35;;;2.00;;
79790;SDS011;69278;52.220;5.172;2023-04-24T13:29:41;10.68;;;2.35;;
79790;SDS011;69278;52.220;5.172;2023-04-24T13:32:08;8.73;;;1.80;;
79790;SDS011;69278;52.220;5.172;2023-04-24T13:34:35;5.88;;;2.00;;
79790;SDS011;69278;52.220;5.172;2023-04-24T13:37:03;10.98;;;2.75;;
79790;SDS011;69278;52.220;5.172;2023-04-24T13:39:30;11.38;;;2.30;;
79790;SDS011;69278;52.220;5.172;2023-04-24T13:41:57;10.57;;;2.42;;
79790;SDS011;69278;52.220;5.172;2023-04-24T13:44:23;9.57;;;2.23;;
79790;SDS011;69278;52.220;5.172;2023-04-24T13:46:51;11.20;;;1.90;;
79790;SDS011;69278;52.220;5.172;2023-04-24T13:49:20;8.95;;;2.00;;
79790;SDS011;69278;52.220;5.172;2023-04-24T13:51:47;10.45;;;2.15;;
79790;SDS011;69278;52.220;5.172;2023-04-24T13:54:14;6.10;;;2.00;;
79790;SDS011;69278;52.220;5.172;2023-04-24T13:56:40;9.00;;;2.40;;
79790;SDS011;69278;52.220;5.172;2023-04-24T13:59:07;7.97;;;2.15;;
79790;SDS011;69278;52.220;5.172;2023-04-24T14:01:34;9.82;;;2.55;;
79790;SDS011;69278;52.220;5.172;2023-04-24T14:04:01;6.13;;;2.17;;
79790;SDS011;69278;52.220;5.172;2023-04-24T14:06:28;9.93;;;2.70;;
79790;SDS011;69278;52.220;5.172;2023-04-24T14:08:54;9.80;;;3.00;;
79790;SDS011;69278;52.220;5.172;2023-04-24T14:11:21;10.80;;;2.92;;
79790;SDS011;69278;52.220;5.172;2023-04-24T14:13:48;9.02;;;2.53;;
79790;SDS011;69278;52.220;5.172;2023-04-24T14:16:15;8.70;;;2.30;;
79790;SDS011;69278;52.220;5.172;2023-04-24T14:18:41;6.80;;;2.40;;
79790;SDS011;69278;52.220;5.172;2023-04-24T14:21:08;7.03;;;2.00;;
79790;SDS011;69278;52.220;5.172;2023-04-24T14:23:34;13.48;;;2.70;;
79790;SDS011;69278;52.220;5.172;2023-04-24T14:26:01;9.57;;;2.50;;
79790;SDS011;69278;52.220;5.172;2023-04-24T14:28:27;11.80;;;2.55;;
79790;SDS011;69278;52.220;5.172;2023-04-24T14:30:54;9.40;;;2.65;;
79790;SDS011;69278;52.220;5.172;2023-04-24T14:33:20;6.97;;;2.20;;
79790;SDS011;69278;52.220;5.172;2023-04-24T14:35:47;4.38;;;1.77;;
79790;SDS011;69278;52.220;5.172;2023-04-24T14:38:14;6.47;;;2.38;;
79790;SDS011;69278;52.220;5.172;2023-04-24T14:40:41;6.30;;;2.05;;
79790;SDS011;69278;52.220;5.172;2023-04-24T14:43:11;9.32;;;2.30;;
79790;SDS011;69278;52.220;5.172;2023-04-24T14:45:37;6.13;;;2.07;;
79790;SDS011;69278;52.220;5.172;2023-04-24T14:48:04;7.82;;;2.50;;
79790;SDS011;69278;52.220;5.172;2023-04-24T14:50:30;11.30;;;2.38;;
79790;SDS011;69278;52.220;5.172;2023-04-24T14:52:57;10.13;;;2.60;;
79790;SDS011;69278;52.220;5.172;2023-04-24T14:55:24;11.80;;;2.50;;
79790;SDS011;69278;52.220;5.172;2023-04-24T14:57:51;12.00;;;2.57;;
79790;SDS011;69278;52.220;5.172;2023-04-24T15:00:18;10.45;;;2.83;;